Time;durP1;ratioP1;P1;durP2;ratioP2;P2;SDS_P1;SDS_P2;PMS_P1;PMS_P2;Temp;Humidity;BMP_temperature;BMP_pressure;BME280_temperature;BME280_humidity;BME280_pressure;Samples;Min_cycle;Max_cycle;Signal;HPM_P1;HPM_P2
2022/10/20 00:01:26;;;;;;;;;;;;;;;;;;7367314;19;1849;-60
2022/10/20 00:03:54;;;;;;;;;;;;;;;;;;7370217;19;843;-60
2022/10/20 00:06:22;;;;;;;;;;;;;;;;;;7368396;19;1374;-61
2022/10/20 00:08:50;;;;;;;;;;;;;;;;;;7368576;19;885;-58
2022/10/20 00:11:18;;;;;;;;;;;;;;;;;;7368906;19;700;-59
2022/10/20 00:13:46;;;;;;;;;;;;;;;;;;7369546;19;877;-60
2022/10/20 00:16:14;;;;;;;;;;;;;;;;;;7369858;19;1841;-61
2022/10/20 00:18:43;;;;;;;;;;;;;;;;;;7368735;19;810;-60
2022/10/20 00:21:11;;;;;;;;;;;;;;;;;;7366612;19;1832;-55
2022/10/20 00:23:39;;;;;;;;;;;;;;;;;;7370652;19;1861;-55
2022/10/20 00:26:07;;;;;;;;;;;;;;;;;;7367389;19;1275;-53
2022/10/20 00:28:35;;;;;;;;;;;;;;;;;;7368670;19;748;-52
2022/10/20 00:31:03;;;;;;;;;;;;;;;;;;7368663;19;837;-53
2022/10/20 00:33:31;;;;;;;;;;;;;;;;;;7368784;19;835;-55
2022/10/20 00:35:59;;;;;;;;;;;;;;;;;;7366056;19;1294;-57
2022/10/20 00:38:27;;;;;;;;;;;;;;;;;;7368514;19;791;-59
2022/10/20 00:40:56;;;;;;;;;;;;;;;;;;7366762;19;1866;-58
2022/10/20 00:43:24;;;;;;;;;;;;;;;;;;7369042;19;1793;-58
2022/10/20 00:45:52;;;;;;;;;;;;;;;;;;7367769;19;1368;-58
2022/10/20 00:48:20;;;;;;;;;;;;;;;;;;7367413;19;830;-58
2022/10/20 00:50:48;;;;;;;;;;;;;;;;;;7369130;19;805;-58
2022/10/20 00:53:16;;;;;;;;;;;;;;;;;;7368401;19;839;-57
2022/10/20 00:55:44;;;;;;;;;;;;;;;;;;7367583;19;1283;-56
2022/10/20 00:58:12;;;;;;;;;;;;;;;;;;7367642;19;865;-58
2022/10/20 01:00:41;;;;;;;;;;;;;;;;;;7366585;19;1834;-58
2022/10/20 01:03:09;;;;;;;;;;;;;;;;;;7368126;19;827;-56
2022/10/20 01:05:37;;;;;;;;;;;;;;;;;;7367485;19;1341;-59
2022/10/20 01:08:05;;;;;;;;;;;;;;;;;;7367265;19;877;-58
2022/10/20 01:10:33;;;;;;;;;;;;;;;;;;7367587;19;872;-57
2022/10/20 01:13:01;;;;;;;;;;;;;;;;;;7364802;19;829;-57
2022/10/20 01:15:29;;;;;;;;;;;;;;;;;;7370724;19;1807;-57
2022/10/20 01:17:57;;;;;;;;;;;;;;;;;;7366906;19;830;-56
2022/10/20 01:20:26;;;;;;;;;;;;;;;;;;7366752;19;1846;-56
2022/10/20 01:22:54;;;;;;;;;;;;;;;;;;7367943;19;883;-59
2022/10/20 01:25:22;;;;;;;;;;;;;;;;;;7367388;19;1294;-58
2022/10/20 01:27:50;;;;;;;;;;;;;;;;;;7366558;19;826;-60
2022/10/20 01:30:18;;;;;;;;;;;;;;;;;;7367626;19;865;-57
2022/10/20 01:32:46;;;;;;;;;;;;;;;;;;7367238;19;858;-59
2022/10/20 01:35:14;;;;;;;;;;;;;;;;;;7367002;19;1293;-60
2022/10/20 01:37:42;;;;;;;;;;;;;;;;;;7364987;19;806;-58
2022/10/20 01:40:11;;;;;;;;;;;;;;;;;;7366365;19;1837;-52
2022/10/20 01:42:39;;;;;;;;;;;;;;;;;;7368896;19;1797;-59
2022/10/20 01:45:07;;;;;;;;;;;;;;;;;;7367928;19;1799;-59
2022/10/20 01:47:35;;;;;;;;;;;;;;;;;;7365992;19;1772;-55
2022/10/20 01:50:03;;;;;;;;;;;;;;;;;;7366484;19;907;-55
2022/10/20 01:52:31;;;;;;;;;;;;;;;;;;7366352;19;815;-52
2022/10/20 01:54:59;;;;;;;;;;;;;;;;;;7366936;19;884;-53
2022/10/20 01:57:27;;;;;;;;;;;;;;;;;;7367571;19;1689;-60
2022/10/20 01:59:56;;;;;;;;;;;;;;;;;;7366366;19;785;-60
2022/10/20 02:02:24;;;;;;;;;;;;;;;;;;7364974;19;1837;-59
2022/10/20 02:04:52;;;;;;;;;;;;;;;;;;7367810;19;819;-57
2022/10/20 02:07:20;;;;;;;;;;;;;;;;;;7364847;19;1556;-59
2022/10/20 02:09:48;;;;;;;;;;;;;;;;;;7366184;19;810;-59
2022/10/20 02:12:16;;;;;;;;;;;;;;;;;;7367932;19;1682;-58
2022/10/20 02:14:44;;;;;;;;;;;;;;;;;;7366472;19;821;-56
2022/10/20 02:17:13;;;;;;;;;;;;;;;;;;7363604;19;1271;-56
2022/10/20 02:19:41;;;;;;;;;;;;;;;;;;7365169;19;873;-59
2022/10/20 02:22:09;;;;;;;;;;;;;;;;;;7363700;19;1981;-53
2022/10/20 02:24:37;;;;;;;;;;;;;;;;;;7365584;19;860;-56
2022/10/20 02:27:05;;;;;;;;;;;;;;;;;;7362955;19;1263;-56
2022/10/20 02:29:33;;;;;;;;;;;;;;;;;;7365070;19;813;-57
2022/10/20 02:32:01;;;;;;;;;;;;;;;;;;7365442;19;857;-58
2022/10/20 02:34:30;;;;;;;;;;;;;;;;;;7365500;19;1133;-56
2022/10/20 02:36:58;;;;;;;;;;;;;;;;;;7362870;19;1269;-58
2022/10/20 02:39:26;;;;;;;;;;;;;;;;;;7364363;19;838;-60
2022/10/20 02:41:54;;;;;;;;;;;;;;;;;;7368229;19;1858;-60
2022/10/20 02:44:22;;;;;;;;;;;;;;;;;;7365420;19;806;-61
2022/10/20 02:46:50;;;;;;;;;;;;;;;;;;7360715;19;1286;-58
2022/10/20 02:49:19;;;;;;;;;;;;;;;;;;7363549;19;813;-58
2022/10/20 02:51:47;;;;;;;;;;;;;;;;;;7369099;19;877;-52
2022/10/20 02:54:15;;;;;;;;;;;;;;;;;;7371466;19;816;-52
2022/10/20 02:56:43;;;;;;;;;;;;;;;;;;7370278;19;1198;-52
2022/10/20 02:59:11;;;;;;;;;;;;;;;;;;7367787;19;861;-54
2022/10/20 03:01:39;;;;;;;;;;;;;;;;;;7371644;19;1873;-55
2022/10/20 03:04:08;;;;;;;;;;;;;;;;;;7372268;19;808;-55
2022/10/20 03:06:36;;;;;;;;;;;;;;;;;;7370166;19;1309;-53
2022/10/20 03:09:04;;;;;;;;;;;;;;;;;;7371022;19;813;-54
2022/10/20 03:11:32;;;;;;;;;;;;;;;;;;7375339;19;1843;-54
2022/10/20 03:14:00;;;;;;;;;;;;;;;;;;7371371;19;813;-57
2022/10/20 03:16:28;;;;;;;;;;;;;;;;;;7369992;19;1341;-57
2022/10/20 03:18:56;;;;;;;;;;;;;;;;;;7370431;19;818;-55
2022/10/20 03:21:25;;;;;;;;;;;;;;;;;;7370744;19;1847;-59
2022/10/20 03:23:53;;;;;;;;;;;;;;;;;;7371262;19;809;-56
2022/10/20 03:26:21;;;;;;;;;;;;;;;;;;7369653;19;1298;-54
2022/10/20 03:28:49;;;;;;;;;;;;;;;;;;7369867;19;877;-54
2022/10/20 03:31:17;;;;;;;;;;;;;;;;;;7371240;19;928;-53
2022/10/20 03:33:45;;;;;;;;;;;;;;;;;;7373805;19;1906;-56
2022/10/20 03:36:13;;;;;;;;;;;;;;;;;;7369008;19;1320;-54
2022/10/20 03:38:42;;;;;;;;;;;;;;;;;;7370666;19;1825;-54
2022/10/20 03:41:10;;;;;;;;;;;;;;;;;;7369796;19;1850;-58
2022/10/20 03:43:38;;;;;;;;;;;;;;;;;;7370605;19;881;-57
2022/10/20 03:46:06;;;;;;;;;;;;;;;;;;7371853;19;2034;-60
2022/10/20 03:48:34;;;;;;;;;;;;;;;;;;7369366;19;858;-56
2022/10/20 03:51:02;;;;;;;;;;;;;;;;;;7369709;19;850;-56
2022/10/20 03:53:30;;;;;;;;;;;;;;;;;;7369647;19;858;-57
2022/10/20 03:55:58;;;;;;;;;;;;;;;;;;7368697;19;1339;-55
2022/10/20 03:58:26;;;;;;;;;;;;;;;;;;7369539;19;833;-57
2022/10/20 04:00:54;;;;;;;;;;;;;;;;;;7369803;19;1883;-60
2022/10/20 04:03:23;;;;;;;;;;;;;;;;;;7370307;19;797;-60
2022/10/20 04:05:51;;;;;;;;;;;;;;;;;;7368903;19;1322;-59
2022/10/20 04:08:19;;;;;;;;;;;;;;;;;;7370642;19;1990;-60
2022/10/20 04:10:47;;;;;;;;;;;;;;;;;;7370087;19;814;-59
2022/10/20 04:13:15;;;;;;;;;;;;;;;;;;7368570;19;909;-58
2022/10/20 04:15:43;;;;;;;;;;;;;;;;;;7368646;19;1304;-61
2022/10/20 04:18:11;;;;;;;;;;;;;;;;;;7369129;19;810;-59
2022/10/20 04:20:40;;;;;;;;;;;;;;;;;;7369246;19;802;-58
2022/10/20 04:23:08;;;;;;;;;;;;;;;;;;7366682;19;1845;-56
2022/10/20 04:25:36;;;;;;;;;;;;;;;;;;7368518;19;1330;-60
2022/10/20 04:28:04;;;;;;;;;;;;;;;;;;7369429;19;873;-58
2022/10/20 04:30:32;;;;;;;;;;;;;;;;;;7369479;19;825;-61
2022/10/20 04:33:00;;;;;;;;;;;;;;;;;;7369500;19;814;-60
2022/10/20 04:35:28;;;;;;;;;;;;;;;;;;7367009;19;1812;-60
2022/10/20 04:37:56;;;;;;;;;;;;;;;;;;7368434;19;821;-57
2022/10/20 04:40:24;;;;;;;;;;;;;;;;;;7369304;19;823;-60
2022/10/20 04:42:53;;;;;;;;;;;;;;;;;;7366225;19;1842;-60
2022/10/20 04:45:21;;;;;;;;;;;;;;;;;;7368158;19;1295;-58
2022/10/20 04:47:49;;;;;;;;;;;;;;;;;;7367935;19;780;-53
2022/10/20 04:50:17;;;;;;;;;;;;;;;;;;7368710;19;823;-55
2022/10/20 04:52:58;;;;;;;;;;;;;;;;;;7369316;19;878;-52
2022/10/20 04:55:26;;;;;;;;;;;;;;;;;;7368528;19;1372;-58
2022/10/20 04:57:55;;;;;;;;;;;;;;;;;;7368249;19;988;-58
2022/10/20 05:00:23;;;;;;;;;;;;;;;;;;7367791;19;825;-60
2022/10/20 05:02:51;;;;;;;;;;;;;;;;;;7365953;19;1866;-60
2022/10/20 05:05:19;;;;;;;;;;;;;;;;;;7372064;19;1929;-61
2022/10/20 05:07:47;;;;;;;;;;;;;;;;;;7367719;19;853;-60
2022/10/20 05:10:16;;;;;;;;;;;;;;;;;;7368440;19;834;-58
2022/10/20 05:12:44;;;;;;;;;;;;;;;;;;7367986;19;831;-60
2022/10/20 05:15:12;;;;;;;;;;;;;;;;;;7367029;19;1340;-55
2022/10/20 05:17:41;;;;;;;;;;;;;;;;;;7367328;19;875;-54
2022/10/20 05:20:09;;;;;;;;;;;;;;;;;;7367279;19;866;-57
2022/10/20 05:22:37;;;;;;;;;;;;;;;;;;7369223;19;1839;-58
2022/10/20 05:25:05;;;;;;;;;;;;;;;;;;7367918;19;870;-56
2022/10/20 05:27:33;;;;;;;;;;;;;;;;;;7367721;19;833;-58
2022/10/20 05:30:02;;;;;;;;;;;;;;;;;;7367272;19;907;-58
2022/10/20 05:32:30;;;;;;;;;;;;;;;;;;7367226;19;1789;-58
2022/10/20 05:34:58;;;;;;;;;;;;;;;;;;7367031;19;802;-57
2022/10/20 05:37:26;;;;;;;;;;;;;;;;;;7362369;19;1251;-58
2022/10/20 05:39:54;;;;;;;;;;;;;;;;;;7365845;19;820;-59
2022/10/20 05:42:23;;;;;;;;;;;;;;;;;;7365489;19;1837;-57
2022/10/20 05:44:51;;;;;;;;;;;;;;;;;;7367482;19;802;-58
2022/10/20 05:47:19;;;;;;;;;;;;;;;;;;7361725;19;2862;-57
2022/10/20 05:49:47;;;;;;;;;;;;;;;;;;7368312;19;1103;-58
2022/10/20 05:52:15;;;;;;;;;;;;;;;;;;7365768;19;833;-57
2022/10/20 05:54:43;;;;;;;;;;;;;;;;;;7365324;19;935;-58
2022/10/20 05:57:11;;;;;;;;;;;;;;;;;;7363866;19;1355;-59
2022/10/20 05:59:39;;;;;;;;;;;;;;;;;;7365516;19;873;-59
2022/10/20 06:02:08;;;;;;;;;;;;;;;;;;7367479;19;1865;-61
2022/10/20 06:04:36;;;;;;;;;;;;;;;;;;7368651;19;819;-61
2022/10/20 06:07:04;;;;;;;;;;;;;;;;;;7368019;19;1274;-56
2022/10/20 06:09:32;;;;;;;;;;;;;;;;;;7373521;19;1874;-59
2022/10/20 06:12:00;;;;;;;;;;;;;;;;;;7371854;19;794;-59
2022/10/20 06:14:29;;;;;;;;;;;;;;;;;;7369885;19;1025;-57
2022/10/20 06:16:57;;;;;;;;;;;;;;;;;;7366807;19;1341;-59
2022/10/20 06:19:25;;;;;;;;;;;;;;;;;;7366547;19;863;-58
2022/10/20 06:21:53;;;;;;;;;;;;;;;;;;7368525;19;1857;-58
2022/10/20 06:24:21;;;;;;;;;;;;;;;;;;7369035;19;826;-59
2022/10/20 06:26:50;;;;;;;;;;;;;;;;;;7366272;19;1247;-63
2022/10/20 06:29:18;;;;;;;;;;;;;;;;;;7366007;19;814;-59
2022/10/20 06:31:46;;;;;;;;;;;;;;;;;;7367793;19;1846;-63
2022/10/20 06:34:14;;;;;;;;;;;;;;;;;;7366852;19;828;-58
2022/10/20 06:36:43;;;;;;;;;;;;;;;;;;7371285;19;1318;-60
2022/10/20 06:39:11;;;;;;;;;;;;;;;;;;7371188;19;838;-62
2022/10/20 06:41:39;;;;;;;;;;;;;;;;;;7371289;19;1845;-62
2022/10/20 06:44:10;;;;;;;;;;;;;;;;;;7369881;19;1373;-62
2022/10/20 06:46:38;;;;;;;;;;;;;;;;;;7370968;19;1278;-61
2022/10/20 06:49:06;;;;;;;;;;;;;;;;;;7371665;19;707;-61
2022/10/20 06:51:34;;;;;;;;;;;;;;;;;;7372140;19;759;-60
2022/10/20 06:54:02;;;;;;;;;;;;;;;;;;7371627;19;1133;-54
2022/10/20 06:56:31;;;;;;;;;;;;;;;;;;7371111;19;1301;-56
2022/10/20 06:58:59;;;;;;;;;;;;;;;;;;7370503;19;1771;-58
2022/10/20 07:01:27;;;;;;;;;;;;;;;;;;7371130;19;813;-58
2022/10/20 07:03:55;;;;;;;;;;;;;;;;;;7368842;19;1857;-55
2022/10/20 07:06:23;;;;;;;;;;;;;;;;;;7370718;19;1278;-59
2022/10/20 07:08:52;;;;;;;;;;;;;;;;;;7370072;19;808;-60
2022/10/20 07:11:20;;;;;;;;;;;;;;;;;;7371213;19;1811;-59
2022/10/20 07:13:48;;;;;;;;;;;;;;;;;;7370658;19;823;-60
2022/10/20 07:16:16;;;;;;;;;;;;;;;;;;7371144;19;1274;-62
2022/10/20 07:18:44;;;;;;;;;;;;;;;;;;7370621;19;892;-61
2022/10/20 07:21:13;;;;;;;;;;;;;;;;;;7372718;19;1812;-62
2022/10/20 07:23:41;;;;;;;;;;;;;;;;;;7373251;19;1878;-62
2022/10/20 07:26:09;;;;;;;;;;;;;;;;;;7370209;19;1321;-59
2022/10/20 07:28:37;;;;;;;;;;;;;;;;;;7369914;19;889;-64
2022/10/20 07:31:05;;;;;;;;;;;;;;;;;;7370601;19;870;-61
2022/10/20 07:33:33;;;;;;;;;;;;;;;;;;7371124;19;830;-62
2022/10/20 07:36:01;;;;;;;;;;;;;;;;;;7370839;19;1329;-63
2022/10/20 07:38:30;;;;;;;;;;;;;;;;;;7367990;19;865;-58
2022/10/20 07:40:58;;;;;;;;;;;;;;;;;;7369981;19;978;-61
2022/10/20 07:43:26;;;;;;;;;;;;;;;;;;7368869;19;1833;-60
2022/10/20 07:45:54;;;;;;;;;;;;;;;;;;7369508;19;1782;-60
2022/10/20 07:48:22;;;;;;;;;;;;;;;;;;7367736;19;1247;-59
2022/10/20 07:50:50;;;;;;;;;;;;;;;;;;7373910;19;948;-57
2022/10/20 07:53:18;;;;;;;;;;;;;;;;;;7370865;19;866;-59
2022/10/20 07:55:47;;;;;;;;;;;;;;;;;;7370665;19;787;-58
2022/10/20 07:58:15;;;;;;;;;;;;;;;;;;7366141;19;1274;-62
2022/10/20 08:00:43;;;;;;;;;;;;;;;;;;7371359;19;1864;-61
2022/10/20 08:03:12;;;;;;;;;;;;;;;;;;7368560;19;1853;-58
2022/10/20 08:05:40;;;;;;;;;;;;;;;;;;7370026;19;1803;-58
2022/10/20 08:08:08;;;;;;;;;;;;;;;;;;7367988;19;1872;-60
2022/10/20 08:10:36;;;;;;;;;;;;;;;;;;7369425;19;873;-63
2022/10/20 08:13:04;;;;;;;;;;;;;;;;;;7369058;19;854;-62
2022/10/20 08:15:32;;;;;;;;;;;;;;;;;;7372325;19;1781;-62
2022/10/20 08:18:00;;;;;;;;;;;;;;;;;;7365931;19;1347;-62
2022/10/20 08:20:28;;;;;;;;;;;;;;;;;;7369085;19;1810;-60
2022/10/20 08:22:57;;;;;;;;;;;;;;;;;;7369253;19;1910;-63
2022/10/20 08:25:25;;;;;;;;;;;;;;;;;;7368907;19;803;-62
2022/10/20 08:27:53;;;;;;;;;;;;;;;;;;7365898;19;1324;-61
2022/10/20 08:30:21;;;;;;;;;;;;;;;;;;7368682;19;1876;-60
2022/10/20 08:32:49;;;;;;;;;;;;;;;;;;7368179;19;1016;-62
2022/10/20 08:35:17;;;;;;;;;;;;;;;;;;7372450;19;1807;-63
2022/10/20 08:37:45;;;;;;;;;;;;;;;;;;7368737;19;1789;-62
2022/10/20 08:40:15;;;;;;;;;;;;;;;;;;7368304;19;807;-56
2022/10/20 08:42:43;;;;;;;;;;;;;;;;;;7369573;19;1869;-58
2022/10/20 08:45:12;;;;;;;;;;;;;;;;;;7368985;19;1773;-59
2022/10/20 08:47:40;;;;;;;;;;;;;;;;;;7365508;19;1283;-61
2022/10/20 08:50:09;;;;;;;;;;;;;;;;;;7368207;19;795;-58
2022/10/20 08:52:37;;;;;;;;;;;;;;;;;;7368432;19;832;-60
2022/10/20 08:55:05;;;;;;;;;;;;;;;;;;7368308;19;745;-62
2022/10/20 08:57:33;;;;;;;;;;;;;;;;;;7363811;19;1272;-61
2022/10/20 09:00:01;;;;;;;;;;;;;;;;;;7366898;19;843;-62
2022/10/20 09:02:29;;;;;;;;;;;;;;;;;;7367821;19;1839;-62
2022/10/20 09:04:57;;;;;;;;;;;;;;;;;;7368236;19;884;-62
2022/10/20 09:07:25;;;;;;;;;;;;;;;;;;7365892;19;1330;-57
2022/10/20 09:09:54;;;;;;;;;;;;;;;;;;7367150;19;826;-62
2022/10/20 09:12:22;;;;;;;;;;;;;;;;;;7367407;19;811;-60
2022/10/20 09:14:50;;;;;;;;;;;;;;;;;;7367341;19;953;-58
2022/10/20 09:17:18;;;;;;;;;;;;;;;;;;7365310;19;1279;-58
2022/10/20 09:19:47;;;;;;;;;;;;;;;;;;7366947;19;811;-62
2022/10/20 09:22:15;;;;;;;;;;;;;;;;;;7367798;19;807;-61
2022/10/20 09:24:44;;;;;;;;;;;;;;;;;;7367143;19;826;-63
2022/10/20 09:27:12;;;;;;;;;;;;;;;;;;7365657;19;1267;-62
2022/10/20 09:29:40;;;;;;;;;;;;;;;;;;7365867;19;855;-61
2022/10/20 09:32:08;;;;;;;;;;;;;;;;;;7367085;19;879;-60
2022/10/20 09:34:36;;;;;;;;;;;;;;;;;;7366798;19;861;-57
2022/10/20 09:37:05;;;;;;;;;;;;;;;;;;7365239;19;1278;-60
2022/10/20 09:39:33;;;;;;;;;;;;;;;;;;7366317;19;806;-58
2022/10/20 09:42:01;;;;;;;;;;;;;;;;;;7366307;19;823;-60
2022/10/20 09:44:29;;;;;;;;;;;;;;;;;;7364106;19;1849;-59
2022/10/20 09:46:57;;;;;;;;;;;;;;;;;;7365024;19;1251;-61
2022/10/20 09:49:25;;;;;;;;;;;;;;;;;;7365255;19;811;-62
2022/10/20 09:51:53;;;;;;;;;;;;;;;;;;7365819;19;839;-61
2022/10/20 09:54:21;;;;;;;;;;;;;;;;;;7366428;19;980;-59
2022/10/20 09:56:51;;;;;;;;;;;;;;;;;;7364789;19;1278;-61
2022/10/20 09:59:19;;;;;;;;;;;;;;;;;;7364986;19;945;-61
2022/10/20 10:01:47;;;;;;;;;;;;;;;;;;7365876;19;875;-61
2022/10/20 10:04:15;;;;;;;;;;;;;;;;;;7363716;19;1863;-61
2022/10/20 10:06:45;;;;;;;;;;;;;;;;;;7364629;19;1247;-61
2022/10/20 10:09:13;;;;;;;;;;;;;;;;;;7369447;19;762;-60
2022/10/20 10:11:41;;;;;;;;;;;;;;;;;;7371438;19;867;-61
2022/10/20 10:14:09;;;;;;;;;;;;;;;;;;7372146;19;858;-61
2022/10/20 10:16:37;;;;;;;;;;;;;;;;;;7370816;19;1280;-62
2022/10/20 10:19:05;;;;;;;;;;;;;;;;;;7371056;19;886;-61
2022/10/20 10:21:33;;;;;;;;;;;;;;;;;;7375577;19;1775;-61
2022/10/20 10:24:01;;;;;;;;;;;;;;;;;;7371094;19;1875;-62
2022/10/20 10:26:30;;;;;;;;;;;;;;;;;;7371563;19;1326;-57
2022/10/20 10:28:58;;;;;;;;;;;;;;;;;;7371131;19;861;-61
2022/10/20 10:31:26;;;;;;;;;;;;;;;;;;7371296;19;794;-61
2022/10/20 10:33:54;;;;;;;;;;;;;;;;;;7371433;19;810;-60
2022/10/20 10:36:22;;;;;;;;;;;;;;;;;;7371156;19;1321;-62
2022/10/20 10:38:50;;;;;;;;;;;;;;;;;;7369701;19;806;-62
2022/10/20 10:41:18;;;;;;;;;;;;;;;;;;7371257;19;827;-62
2022/10/20 10:43:46;;;;;;;;;;;;;;;;;;7372046;19;1856;-62
2022/10/20 10:46:15;;;;;;;;;;;;;;;;;;7371250;19;1271;-61
2022/10/20 10:48:44;;;;;;;;;;;;;;;;;;7371764;19;1824;-60
2022/10/20 10:51:12;;;;;;;;;;;;;;;;;;7372022;19;1020;-60
2022/10/20 10:53:40;;;;;;;;;;;;;;;;;;7373575;19;955;-61
2022/10/20 10:56:08;;;;;;;;;;;;;;;;;;7374286;19;1361;-60
2022/10/20 10:58:37;;;;;;;;;;;;;;;;;;7369925;19;893;-58
2022/10/20 11:01:05;;;;;;;;;;;;;;;;;;7371029;19;956;-61
2022/10/20 11:03:33;;;;;;;;;;;;;;;;;;7369994;19;1845;-60
2022/10/20 11:06:01;;;;;;;;;;;;;;;;;;7371472;19;791;-60
2022/10/20 11:08:29;;;;;;;;;;;;;;;;;;7370212;19;869;-59
2022/10/20 11:10:58;;;;;;;;;;;;;;;;;;7370364;19;861;-60
2022/10/20 11:13:26;;;;;;;;;;;;;;;;;;7370656;19;790;-60
2022/10/20 11:15:55;;;;;;;;;;;;;;;;;;7369990;19;799;-61
2022/10/20 11:18:23;;;;;;;;;;;;;;;;;;7367796;19;1690;-58
2022/10/20 11:20:51;;;;;;;;;;;;;;;;;;7368581;19;843;-59
2022/10/20 11:23:19;;;;;;;;;;;;;;;;;;7370126;19;1842;-61
2022/10/20 11:25:47;;;;;;;;;;;;;;;;;;7369633;19;821;-57
2022/10/20 11:28:15;;;;;;;;;;;;;;;;;;7368076;19;1259;-58
2022/10/20 11:30:43;;;;;;;;;;;;;;;;;;7369048;19;816;-57
2022/10/20 11:33:12;;;;;;;;;;;;;;;;;;7370093;19;855;-61
2022/10/20 11:35:40;;;;;;;;;;;;;;;;;;7371749;19;1797;-56
2022/10/20 11:38:08;;;;;;;;;;;;;;;;;;7365352;19;1306;-60
2022/10/20 11:40:36;;;;;;;;;;;;;;;;;;7370323;19;810;-57
2022/10/20 11:43:04;;;;;;;;;;;;;;;;;;7370266;19;1846;-59
2022/10/20 11:45:32;;;;;;;;;;;;;;;;;;7369890;19;807;-59
2022/10/20 11:48:01;;;;;;;;;;;;;;;;;;7367795;19;1282;-53
2022/10/20 11:50:29;;;;;;;;;;;;;;;;;;7372124;19;819;-55
2022/10/20 11:52:59;;;;;;;;;;;;;;;;;;7371914;19;875;-54
2022/10/20 11:55:27;;;;;;;;;;;;;;;;;;7372071;19;725;-55
2022/10/20 11:57:55;;;;;;;;;;;;;;;;;;7369065;19;1270;-54
2022/10/20 12:00:23;;;;;;;;;;;;;;;;;;7371786;19;806;-54
2022/10/20 12:02:51;;;;;;;;;;;;;;;;;;7372001;19;812;-53
2022/10/20 12:05:20;;;;;;;;;;;;;;;;;;7369587;19;1857;-52
2022/10/20 12:07:48;;;;;;;;;;;;;;;;;;7368715;19;1259;-54
2022/10/20 12:10:16;;;;;;;;;;;;;;;;;;7371839;19;855;-51
2022/10/20 12:12:45;;;;;;;;;;;;;;;;;;7371477;19;850;-52
2022/10/20 12:15:13;;;;;;;;;;;;;;;;;;7370897;19;865;-51
2022/10/20 12:17:41;;;;;;;;;;;;;;;;;;7368456;19;1255;-50
2022/10/20 12:20:09;;;;;;;;;;;;;;;;;;7370534;19;827;-53
2022/10/20 12:22:37;;;;;;;;;;;;;;;;;;7370534;19;866;-49
2022/10/20 12:25:05;;;;;;;;;;;;;;;;;;7368582;19;1849;-51
2022/10/20 12:27:33;;;;;;;;;;;;;;;;;;7369154;19;1365;-51
2022/10/20 12:30:01;;;;;;;;;;;;;;;;;;7371171;19;812;-50
2022/10/20 12:32:30;;;;;;;;;;;;;;;;;;7368158;19;858;-50
2022/10/20 12:34:58;;;;;;;;;;;;;;;;;;7369703;19;788;-50
2022/10/20 12:37:26;;;;;;;;;;;;;;;;;;7367719;19;1856;-55
2022/10/20 12:39:54;;;;;;;;;;;;;;;;;;7368737;19;823;-55
2022/10/20 12:42:22;;;;;;;;;;;;;;;;;;7369426;19;767;-55
2022/10/20 12:44:50;;;;;;;;;;;;;;;;;;7367483;19;1838;-55
2022/10/20 12:47:18;;;;;;;;;;;;;;;;;;7367633;19;1327;-58
2022/10/20 12:49:46;;;;;;;;;;;;;;;;;;7368102;19;836;-54
2022/10/20 12:52:15;;;;;;;;;;;;;;;;;;7372575;19;806;-57
2022/10/20 12:54:43;;;;;;;;;;;;;;;;;;7373175;19;820;-55
2022/10/20 12:57:11;;;;;;;;;;;;;;;;;;7372293;19;1357;-53
2022/10/20 12:59:39;;;;;;;;;;;;;;;;;;7373656;19;887;-55
2022/10/20 13:02:07;;;;;;;;;;;;;;;;;;7373258;19;870;-52
2022/10/20 13:04:36;;;;;;;;;;;;;;;;;;7370689;19;1841;-50
2022/10/20 13:07:04;;;;;;;;;;;;;;;;;;7368417;19;1290;-54
2022/10/20 13:09:32;;;;;;;;;;;;;;;;;;7368365;19;700;-53
2022/10/20 13:12:00;;;;;;;;;;;;;;;;;;7368673;19;790;-49
2022/10/20 13:14:28;;;;;;;;;;;;;;;;;;7370094;19;1086;-54
2022/10/20 13:16:56;;;;;;;;;;;;;;;;;;7368786;19;1286;-52
2022/10/20 13:19:25;;;;;;;;;;;;;;;;;;7368438;19;815;-56
2022/10/20 13:21:53;;;;;;;;;;;;;;;;;;7369902;19;2175;-51
2022/10/20 13:24:21;;;;;;;;;;;;;;;;;;7368076;19;1837;-51
2022/10/20 13:26:49;;;;;;;;;;;;;;;;;;7368171;19;2040;-51
2022/10/20 13:29:17;;;;;;;;;;;;;;;;;;7371962;19;1817;-50
2022/10/20 13:31:45;;;;;;;;;;;;;;;;;;7372611;19;1836;-56
2022/10/20 13:34:13;;;;;;;;;;;;;;;;;;7368821;19;822;-56
2022/10/20 13:36:42;;;;;;;;;;;;;;;;;;7368084;19;1270;-58
2022/10/20 13:39:10;;;;;;;;;;;;;;;;;;7367294;19;858;-53
2022/10/20 13:41:38;;;;;;;;;;;;;;;;;;7367728;19;732;-52
2022/10/20 13:44:06;;;;;;;;;;;;;;;;;;7365592;19;1849;-54
2022/10/20 13:46:34;;;;;;;;;;;;;;;;;;7366359;19;1310;-54
2022/10/20 13:49:02;;;;;;;;;;;;;;;;;;7367031;19;853;-54
2022/10/20 13:51:30;;;;;;;;;;;;;;;;;;7367778;19;1848;-57
2022/10/20 13:53:59;;;;;;;;;;;;;;;;;;7369376;19;1054;-52
2022/10/20 13:56:27;;;;;;;;;;;;;;;;;;7367544;19;1743;-49
2022/10/20 13:58:55;;;;;;;;;;;;;;;;;;7370571;19;1787;-50
2022/10/20 14:01:24;;;;;;;;;;;;;;;;;;7366655;19;882;-52
2022/10/20 14:03:52;;;;;;;;;;;;;;;;;;7366423;19;1847;-53
2022/10/20 14:06:20;;;;;;;;;;;;;;;;;;7365959;19;1792;-53
2022/10/20 14:08:48;;;;;;;;;;;;;;;;;;7366209;19;819;-51
2022/10/20 14:11:16;;;;;;;;;;;;;;;;;;7366325;19;827;-50
2022/10/20 14:13:44;;;;;;;;;;;;;;;;;;7366404;19;862;-54
2022/10/20 14:16:12;;;;;;;;;;;;;;;;;;7365953;19;1290;-52
2022/10/20 14:18:40;;;;;;;;;;;;;;;;;;7364893;19;849;-55
2022/10/20 14:21:09;;;;;;;;;;;;;;;;;;7366065;19;1910;-50
2022/10/20 14:23:37;;;;;;;;;;;;;;;;;;7365520;19;831;-53
2022/10/20 14:26:05;;;;;;;;;;;;;;;;;;7364115;19;1900;-52
2022/10/20 14:28:34;;;;;;;;;;;;;;;;;;7364798;19;851;-55
2022/10/20 14:31:02;;;;;;;;;;;;;;;;;;7365377;19;877;-54
2022/10/20 14:33:30;;;;;;;;;;;;;;;;;;7364841;19;828;-53
2022/10/20 14:35:58;;;;;;;;;;;;;;;;;;7365428;19;873;-53
2022/10/20 14:38:26;;;;;;;;;;;;;;;;;;7362367;19;1206;-49
2022/10/20 14:40:54;;;;;;;;;;;;;;;;;;7365219;19;883;-53
2022/10/20 14:43:22;;;;;;;;;;;;;;;;;;7365090;19;842;-52
2022/10/20 14:45:50;;;;;;;;;;;;;;;;;;7362897;19;1838;-54
2022/10/20 14:48:19;;;;;;;;;;;;;;;;;;7361669;19;1321;-55
2022/10/20 14:50:47;;;;;;;;;;;;;;;;;;7365828;19;1806;-55
2022/10/20 14:53:15;;;;;;;;;;;;;;;;;;7369923;19;1548;-50
2022/10/20 14:55:43;;;;;;;;;;;;;;;;;;7370554;19;2012;-50
2022/10/20 14:58:11;;;;;;;;;;;;;;;;;;7370992;19;1752;-51
2022/10/20 15:00:39;;;;;;;;;;;;;;;;;;7374331;19;1823;-52
2022/10/20 15:03:08;;;;;;;;;;;;;;;;;;7372751;19;1558;-49
2022/10/20 15:05:36;;;;;;;;;;;;;;;;;;7369660;19;1854;-53
2022/10/20 15:08:04;;;;;;;;;;;;;;;;;;7371599;19;1751;-54
2022/10/20 15:10:32;;;;;;;;;;;;;;;;;;7371027;19;853;-55
2022/10/20 15:13:00;;;;;;;;;;;;;;;;;;7373764;19;1573;-59
2022/10/20 15:15:28;;;;;;;;;;;;;;;;;;7370569;19;855;-53
2022/10/20 15:17:57;;;;;;;;;;;;;;;;;;7367859;19;1334;-54
2022/10/20 15:20:25;;;;;;;;;;;;;;;;;;7369935;19;808;-54
2022/10/20 15:22:53;;;;;;;;;;;;;;;;;;7370880;19;846;-54
2022/10/20 15:25:21;;;;;;;;;;;;;;;;;;7372917;19;1861;-55
2022/10/20 15:27:49;;;;;;;;;;;;;;;;;;7368090;19;1333;-52
2022/10/20 15:30:17;;;;;;;;;;;;;;;;;;7371067;19;778;-55
2022/10/20 15:32:45;;;;;;;;;;;;;;;;;;7370684;19;878;-56
2022/10/20 15:35:15;;;;;;;;;;;;;;;;;;7370479;19;776;-52
2022/10/20 15:37:43;;;;;;;;;;;;;;;;;;7371932;19;2371;-53
2022/10/20 15:40:11;;;;;;;;;;;;;;;;;;7373839;19;2011;-56
2022/10/20 15:42:39;;;;;;;;;;;;;;;;;;7374218;19;1817;-55
2022/10/20 15:45:08;;;;;;;;;;;;;;;;;;7371907;19;2021;-52
2022/10/20 15:47:36;;;;;;;;;;;;;;;;;;7371080;19;1865;-57
2022/10/20 15:50:04;;;;;;;;;;;;;;;;;;7371877;19;1773;-57
2022/10/20 15:52:32;;;;;;;;;;;;;;;;;;7373135;19;2020;-57
2022/10/20 15:55:00;;;;;;;;;;;;;;;;;;7374208;19;1712;-59
2022/10/20 15:57:29;;;;;;;;;;;;;;;;;;7369648;19;1789;-56
2022/10/20 15:59:57;;;;;;;;;;;;;;;;;;7369128;19;877;-56
2022/10/20 16:02:25;;;;;;;;;;;;;;;;;;7374485;19;1875;-56
2022/10/20 16:04:53;;;;;;;;;;;;;;;;;;7372094;19;1845;-54
2022/10/20 16:07:21;;;;;;;;;;;;;;;;;;7371308;19;1938;-55
2022/10/20 16:09:50;;;;;;;;;;;;;;;;;;7369888;19;2024;-53
2022/10/20 16:12:18;;;;;;;;;;;;;;;;;;7371798;19;2075;-52
2022/10/20 16:14:46;;;;;;;;;;;;;;;;;;7371658;19;2028;-54
2022/10/20 16:17:14;;;;;;;;;;;;;;;;;;7371244;19;1771;-56
2022/10/20 16:19:42;;;;;;;;;;;;;;;;;;7367418;19;854;-56
2022/10/20 16:22:10;;;;;;;;;;;;;;;;;;7371906;19;1844;-57
2022/10/20 16:24:38;;;;;;;;;;;;;;;;;;7369307;19;1864;-58
2022/10/20 16:27:06;;;;;;;;;;;;;;;;;;7371251;19;2005;-59
2022/10/20 16:29:34;;;;;;;;;;;;;;;;;;7370504;19;1632;-60
2022/10/20 16:32:03;;;;;;;;;;;;;;;;;;7372350;19;1975;-60
2022/10/20 16:34:31;;;;;;;;;;;;;;;;;;7371642;19;1786;-55
2022/10/20 16:36:59;;;;;;;;;;;;;;;;;;7372180;19;1905;-53
2022/10/20 16:39:27;;;;;;;;;;;;;;;;;;7366332;19;807;-57
2022/10/20 16:41:55;;;;;;;;;;;;;;;;;;7372363;19;1717;-57
2022/10/20 16:44:23;;;;;;;;;;;;;;;;;;7368006;19;834;-58
2022/10/20 16:46:51;;;;;;;;;;;;;;;;;;7368601;19;1842;-56
2022/10/20 16:49:19;;;;;;;;;;;;;;;;;;7371743;19;2070;-58
2022/10/20 16:51:48;;;;;;;;;;;;;;;;;;7371985;19;2024;-58
2022/10/20 16:54:16;;;;;;;;;;;;;;;;;;7371191;19;1825;-59
2022/10/20 16:56:44;;;;;;;;;;;;;;;;;;7370021;19;2037;-60
2022/10/20 16:59:12;;;;;;;;;;;;;;;;;;7370864;19;2055;-57
2022/10/20 17:01:40;;;;;;;;;;;;;;;;;;7369781;19;1591;-58
2022/10/20 17:04:08;;;;;;;;;;;;;;;;;;7370046;19;1901;-56
2022/10/20 17:06:36;;;;;;;;;;;;;;;;;;7368661;19;2022;-60
2022/10/20 17:09:04;;;;;;;;;;;;;;;;;;7371309;19;2082;-60
2022/10/20 17:11:33;;;;;;;;;;;;;;;;;;7372001;19;2070;-53
2022/10/20 17:14:01;;;;;;;;;;;;;;;;;;7368014;19;900;-55
2022/10/20 17:16:29;;;;;;;;;;;;;;;;;;7370065;19;1831;-57